sensor_id;sensor_type;location;lat;lon;timestamp;temperature;humidity
17284;DHT22;8760;52.248;20.952;2023-12-28T00:01:45;1.60;99.90
17284;DHT22;8760;52.248;20.952;2023-12-28T00:04:12;1.50;99.90
17284;DHT22;8760;52.248;20.952;2023-12-28T00:06:40;1.50;99.90
17284;DHT22;8760;52.248;20.952;2023-12-28T00:09:07;1.50;99.90
17284;DHT22;8760;52.248;20.952;2023-12-28T00:11:35;1.50;99.90
17284;DHT22;8760;52.248;20.952;2023-12-28T00:14:02;1.50;99.90
17284;DHT22;8760;52.248;20.952;2023-12-28T00:16:30;1.40;99.90
17284;DHT22;8760;52.248;20.952;2023-12-28T00:18:59;1.50;99.90
17284;DHT22;8760;52.248;20.952;2023-12-28T00:21:27;1.50;99.90
17284;DHT22;8760;52.248;20.952;2023-12-28T00:23:55;1.40;99.90
17284;DHT22;8760;52.248;20.952;2023-12-28T00:26:22;1.40;99.90
17284;DHT22;8760;52.248;20.952;2023-12-28T00:28:49;1.40;99.90
17284;DHT22;8760;52.248;20.952;2023-12-28T00:31:16;1.40;99.90
17284;DHT22;8760;52.248;20.952;2023-12-28T00:33:43;1.40;99.90
17284;DHT22;8760;52.248;20.952;2023-12-28T00:36:10;1.40;99.90
17284;DHT22;8760;52.248;20.952;2023-12-28T00:38:36;1.60;99.90
17284;DHT22;8760;52.248;20.952;2023-12-28T00:41:05;1.60;99.90
17284;DHT22;8760;52.248;20.952;2023-12-28T00:43:31;1.70;99.90
17284;DHT22;8760;52.248;20.952;2023-12-28T00:45:58;1.70;99.90
17284;DHT22;8760;52.248;20.952;2023-12-28T00:48:25;1.70;99.90
17284;DHT22;8760;52.248;20.952;2023-12-28T00:50:52;1.70;99.90
17284;DHT22;8760;52.248;20.952;2023-12-28T00:53:20;1.70;99.90
17284;DHT22;8760;52.248;20.952;2023-12-28T00:55:48;1.70;99.90
17284;DHT22;8760;52.248;20.952;2023-12-28T00:58:16;1.70;99.90
17284;DHT22;8760;52.248;20.952;2023-12-28T01:00:43;1.60;99.90
17284;DHT22;8760;52.248;20.952;2023-12-28T01:03:10;1.60;99.90
17284;DHT22;8760;52.248;20.952;2023-12-28T01:05:37;1.50;99.90
17284;DHT22;8760;52.248;20.952;2023-12-28T01:08:04;1.50;99.90
17284;DHT22;8760;52.248;20.952;2023-12-28T01:10:31;1.50;99.90
17284;DHT22;8760;52.248;20.952;2023-12-28T01:12:58;1.50;99.90
17284;DHT22;8760;52.248;20.952;2023-12-28T01:15:26;1.50;99.90
17284;DHT22;8760;52.248;20.952;2023-12-28T01:17:53;1.50;99.90
17284;DHT22;8760;52.248;20.952;2023-12-28T01:20:19;1.50;99.90
17284;DHT22;8760;52.248;20.952;2023-12-28T01:22:46;1.40;99.90
17284;DHT22;8760;52.248;20.952;2023-12-28T01:25:15;1.40;99.90
17284;DHT22;8760;52.248;20.952;2023-12-28T01:27:42;1.30;99.90
17284;DHT22;8760;52.248;20.952;2023-12-28T01:30:09;1.20;99.90
17284;DHT22;8760;52.248;20.952;2023-12-28T01:32:37;1.20;99.90
17284;DHT22;8760;52.248;20.952;2023-12-28T01:35:05;1.10;99.90
17284;DHT22;8760;52.248;20.952;2023-12-28T01:37:32;1.20;99.90
17284;DHT22;8760;52.248;20.952;2023-12-28T01:39:59;1.20;99.90
17284;DHT22;8760;52.248;20.952;2023-12-28T01:42:25;1.30;99.90
17284;DHT22;8760;52.248;20.952;2023-12-28T01:44:52;1.20;99.90
17284;DHT22;8760;52.248;20.952;2023-12-28T01:47:19;1.30;99.90
17284;DHT22;8760;52.248;20.952;2023-12-28T01:49:47;1.30;99.90
17284;DHT22;8760;52.248;20.952;2023-12-28T01:52:14;1.40;99.90
17284;DHT22;8760;52.248;20.952;2023-12-28T01:54:41;1.40;99.90
17284;DHT22;8760;52.248;20.952;2023-12-28T01:57:08;1.40;99.90
17284;DHT22;8760;52.248;20.952;2023-12-28T01:59:35;1.40;99.90
17284;DHT22;8760;52.248;20.952;2023-12-28T02:02:03;1.40;99.90
17284;DHT22;8760;52.248;20.952;2023-12-28T02:04:30;1.40;99.90
17284;DHT22;8760;52.248;20.952;2023-12-28T02:06:59;1.30;99.90
17284;DHT22;8760;52.248;20.952;2023-12-28T02:09:27;1.30;99.90
17284;DHT22;8760;52.248;20.952;2023-12-28T02:11:54;1.40;99.90
17284;DHT22;8760;52.248;20.952;2023-12-28T02:14:21;1.40;99.90
17284;DHT22;8760;52.248;20.952;2023-12-28T02:16:56;1.40;99.90
17284;DHT22;8760;52.248;20.952;2023-12-28T02:19:32;1.40;99.90
17284;DHT22;8760;52.248;20.952;2023-12-28T02:22:01;1.40;99.90
17284;DHT22;8760;52.248;20.952;2023-12-28T02:24:29;1.40;99.90
17284;DHT22;8760;52.248;20.952;2023-12-28T02:26:57;1.40;99.90
17284;DHT22;8760;52.248;20.952;2023-12-28T02:29:24;1.40;99.90
17284;DHT22;8760;52.248;20.952;2023-12-28T02:31:56;1.40;99.90
17284;DHT22;8760;52.248;20.952;2023-12-28T02:34:29;1.50;99.90
17284;DHT22;8760;52.248;20.952;2023-12-28T02:36:59;1.50;99.90
17284;DHT22;8760;52.248;20.952;2023-12-28T02:39:29;1.50;99.90
17284;DHT22;8760;52.248;20.952;2023-12-28T02:41:57;1.60;99.90
17284;DHT22;8760;52.248;20.952;2023-12-28T02:44:24;1.70;99.90
17284;DHT22;8760;52.248;20.952;2023-12-28T02:46:51;1.80;99.90
17284;DHT22;8760;52.248;20.952;2023-12-28T02:49:18;1.80;99.90
17284;DHT22;8760;52.248;20.952;2023-12-28T02:51:45;1.80;99.90
17284;DHT22;8760;52.248;20.952;2023-12-28T02:54:12;1.80;99.90
17284;DHT22;8760;52.248;20.952;2023-12-28T02:56:39;1.80;99.90
17284;DHT22;8760;52.248;20.952;2023-12-28T02:59:08;1.90;99.90
17284;DHT22;8760;52.248;20.952;2023-12-28T03:01:35;1.90;99.90
17284;DHT22;8760;52.248;20.952;2023-12-28T03:04:01;1.90;99.90
17284;DHT22;8760;52.248;20.952;2023-12-28T03:06:28;1.80;99.90
17284;DHT22;8760;52.248;20.952;2023-12-28T03:08:55;2.00;99.90
17284;DHT22;8760;52.248;20.952;2023-12-28T03:11:22;1.90;99.90
17284;DHT22;8760;52.248;20.952;2023-12-28T03:13:49;1.90;99.90
17284;DHT22;8760;52.248;20.952;2023-12-28T03:16:17;1.90;99.90
17284;DHT22;8760;52.248;20.952;2023-12-28T03:18:44;2.00;99.90
17284;DHT22;8760;52.248;20.952;2023-12-28T03:21:10;2.00;99.90
17284;DHT22;8760;52.248;20.952;2023-12-28T03:23:37;2.00;99.90
17284;DHT22;8760;52.248;20.952;2023-12-28T03:26:04;2.00;99.90
17284;DHT22;8760;52.248;20.952;2023-12-28T03:28:31;2.00;99.90
17284;DHT22;8760;52.248;20.952;2023-12-28T03:30:58;1.90;99.90
17284;DHT22;8760;52.248;20.952;2023-12-28T03:33:28;1.90;99.90
17284;DHT22;8760;52.248;20.952;2023-12-28T03:35:55;1.90;99.90
17284;DHT22;8760;52.248;20.952;2023-12-28T03:38:22;2.00;99.90
17284;DHT22;8760;52.248;20.952;2023-12-28T03:40:49;2.00;99.90
17284;DHT22;8760;52.248;20.952;2023-12-28T03:43:17;2.00;99.90
17284;DHT22;8760;52.248;20.952;2023-12-28T03:45:44;2.00;99.90
17284;DHT22;8760;52.248;20.952;2023-12-28T03:48:10;2.00;99.90
17284;DHT22;8760;52.248;20.952;2023-12-28T03:50:39;2.00;99.90
17284;DHT22;8760;52.248;20.952;2023-12-28T03:53:06;2.00;99.90
17284;DHT22;8760;52.248;20.952;2023-12-28T03:55:32;2.10;99.90
17284;DHT22;8760;52.248;20.952;2023-12-28T03:57:59;2.10;99.90
17284;DHT22;8760;52.248;20.952;2023-12-28T04:00:26;2.10;99.90
17284;DHT22;8760;52.248;20.952;2023-12-28T04:02:53;2.10;99.90
17284;DHT22;8760;52.248;20.952;2023-12-28T04:05:21;2.20;99.90
17284;DHT22;8760;52.248;20.952;2023-12-28T04:07:49;2.20;99.90
17284;DHT22;8760;52.248;20.952;2023-12-28T04:10:28;2.10;99.90
17284;DHT22;8760;52.248;20.952;2023-12-28T04:12:55;2.10;99.90
17284;DHT22;8760;52.248;20.952;2023-12-28T04:15:23;2.10;99.90
17284;DHT22;8760;52.248;20.952;2023-12-28T04:17:49;2.10;99.90
17284;DHT22;8760;52.248;20.952;2023-12-28T04:20:16;2.00;99.90
17284;DHT22;8760;52.248;20.952;2023-12-28T04:22:43;2.00;99.90
17284;DHT22;8760;52.248;20.952;2023-12-28T04:25:12;2.00;99.90
17284;DHT22;8760;52.248;20.952;2023-12-28T04:27:39;2.00;99.90
17284;DHT22;8760;52.248;20.952;2023-12-28T04:30:07;2.00;99.90
17284;DHT22;8760;52.248;20.952;2023-12-28T04:32:34;2.00;99.90
17284;DHT22;8760;52.248;20.952;2023-12-28T04:35:00;2.00;99.90
17284;DHT22;8760;52.248;20.952;2023-12-28T04:37:29;2.00;99.90
17284;DHT22;8760;52.248;20.952;2023-12-28T04:39:56;2.10;99.90
17284;DHT22;8760;52.248;20.952;2023-12-28T04:42:24;2.00;99.90
17284;DHT22;8760;52.248;20.952;2023-12-28T04:44:51;2.00;99.90
17284;DHT22;8760;52.248;20.952;2023-12-28T04:47:18;1.90;99.90
17284;DHT22;8760;52.248;20.952;2023-12-28T04:49:45;1.90;99.90
17284;DHT22;8760;52.248;20.952;2023-12-28T04:52:12;1.90;99.90
17284;DHT22;8760;52.248;20.952;2023-12-28T04:54:40;1.90;99.90
17284;DHT22;8760;52.248;20.952;2023-12-28T04:57:07;1.90;99.90
17284;DHT22;8760;52.248;20.952;2023-12-28T04:59:39;1.90;99.90
17284;DHT22;8760;52.248;20.952;2023-12-28T05:02:06;1.80;99.90
17284;DHT22;8760;52.248;20.952;2023-12-28T05:04:33;1.80;99.90
17284;DHT22;8760;52.248;20.952;2023-12-28T05:07:00;1.90;99.90
17284;DHT22;8760;52.248;20.952;2023-12-28T05:09:26;1.90;99.90
17284;DHT22;8760;52.248;20.952;2023-12-28T05:11:53;1.80;99.90
17284;DHT22;8760;52.248;20.952;2023-12-28T05:14:20;1.80;99.90
17284;DHT22;8760;52.248;20.952;2023-12-28T05:16:48;1.80;99.90
17284;DHT22;8760;52.248;20.952;2023-12-28T05:19:15;1.80;99.90
17284;DHT22;8760;52.248;20.952;2023-12-28T05:21:42;1.80;99.90
17284;DHT22;8760;52.248;20.952;2023-12-28T05:24:09;1.80;99.90
17284;DHT22;8760;52.248;20.952;2023-12-28T05:26:36;1.70;99.90
17284;DHT22;8760;52.248;20.952;2023-12-28T05:29:03;1.70;99.90
17284;DHT22;8760;52.248;20.952;2023-12-28T05:31:30;1.70;99.90
17284;DHT22;8760;52.248;20.952;2023-12-28T05:33:58;1.80;99.90
17284;DHT22;8760;52.248;20.952;2023-12-28T05:36:25;1.80;99.90
17284;DHT22;8760;52.248;20.952;2023-12-28T05:38:52;1.90;99.90
17284;DHT22;8760;52.248;20.952;2023-12-28T05:41:18;1.80;99.90
17284;DHT22;8760;52.248;20.952;2023-12-28T05:43:46;1.70;99.90
17284;DHT22;8760;52.248;20.952;2023-12-28T05:46:13;1.70;99.90
17284;DHT22;8760;52.248;20.952;2023-12-28T05:48:40;1.70;99.90
17284;DHT22;8760;52.248;20.952;2023-12-28T05:51:08;1.70;99.90
17284;DHT22;8760;52.248;20.952;2023-12-28T05:53:35;1.70;99.90
17284;DHT22;8760;52.248;20.952;2023-12-28T05:56:02;1.70;99.90
17284;DHT22;8760;52.248;20.952;2023-12-28T05:58:29;1.70;99.90
17284;DHT22;8760;52.248;20.952;2023-12-28T06:00:56;1.70;99.90
17284;DHT22;8760;52.248;20.952;2023-12-28T06:03:23;1.70;99.90
17284;DHT22;8760;52.248;20.952;2023-12-28T06:05:53;1.70;99.90
17284;DHT22;8760;52.248;20.952;2023-12-28T06:08:22;1.70;99.90
17284;DHT22;8760;52.248;20.952;2023-12-28T06:10:49;1.70;99.90
17284;DHT22;8760;52.248;20.952;2023-12-28T06:13:16;1.60;99.90
17284;DHT22;8760;52.248;20.952;2023-12-28T06:15:43;1.60;99.90
17284;DHT22;8760;52.248;20.952;2023-12-28T06:18:10;1.60;99.90
17284;DHT22;8760;52.248;20.952;2023-12-28T06:20:37;1.70;99.90
17284;DHT22;8760;52.248;20.952;2023-12-28T06:23:06;1.70;99.90
17284;DHT22;8760;52.248;20.952;2023-12-28T06:25:34;1.70;99.90
17284;DHT22;8760;52.248;20.952;2023-12-28T06:28:01;1.70;99.90
17284;DHT22;8760;52.248;20.952;2023-12-28T06:30:28;1.70;99.90
17284;DHT22;8760;52.248;20.952;2023-12-28T06:32:55;1.70;99.90
17284;DHT22;8760;52.248;20.952;2023-12-28T06:35:22;1.70;99.90
17284;DHT22;8760;52.248;20.952;2023-12-28T06:37:49;1.60;99.90
17284;DHT22;8760;52.248;20.952;2023-12-28T06:40:16;1.70;99.90
17284;DHT22;8760;52.248;20.952;2023-12-28T06:42:44;1.70;99.90
17284;DHT22;8760;52.248;20.952;2023-12-28T06:45:11;1.70;99.90
17284;DHT22;8760;52.248;20.952;2023-12-28T06:47:37;1.60;99.90
17284;DHT22;8760;52.248;20.952;2023-12-28T06:50:05;1.60;99.90
17284;DHT22;8760;52.248;20.952;2023-12-28T06:52:32;1.60;99.90
17284;DHT22;8760;52.248;20.952;2023-12-28T06:54:59;1.60;99.90
17284;DHT22;8760;52.248;20.952;2023-12-28T06:57:26;1.70;99.90
17284;DHT22;8760;52.248;20.952;2023-12-28T06:59:55;1.80;99.90
17284;DHT22;8760;52.248;20.952;2023-12-28T07:02:23;1.80;99.90
17284;DHT22;8760;52.248;20.952;2023-12-28T07:04:50;1.80;99.90
17284;DHT22;8760;52.248;20.952;2023-12-28T07:07:17;1.80;99.90
17284;DHT22;8760;52.248;20.952;2023-12-28T07:09:44;1.90;99.90
17284;DHT22;8760;52.248;20.952;2023-12-28T07:12:11;1.90;99.90
17284;DHT22;8760;52.248;20.952;2023-12-28T07:14:38;2.00;99.90
17284;DHT22;8760;52.248;20.952;2023-12-28T07:17:06;2.00;99.90
17284;DHT22;8760;52.248;20.952;2023-12-28T07:19:33;2.00;99.90
17284;DHT22;8760;52.248;20.952;2023-12-28T07:21:59;2.00;99.90
17284;DHT22;8760;52.248;20.952;2023-12-28T07:24:27;2.00;99.90
17284;DHT22;8760;52.248;20.952;2023-12-28T07:26:53;2.00;99.90
17284;DHT22;8760;52.248;20.952;2023-12-28T07:29:20;2.10;99.90
17284;DHT22;8760;52.248;20.952;2023-12-28T07:31:47;2.10;99.90
17284;DHT22;8760;52.248;20.952;2023-12-28T07:34:15;2.10;99.90
17284;DHT22;8760;52.248;20.952;2023-12-28T07:36:42;2.10;99.90
17284;DHT22;8760;52.248;20.952;2023-12-28T07:39:09;2.20;99.90
17284;DHT22;8760;52.248;20.952;2023-12-28T07:41:36;2.20;99.90
17284;DHT22;8760;52.248;20.952;2023-12-28T07:44:03;2.20;99.90
17284;DHT22;8760;52.248;20.952;2023-12-28T07:46:30;2.30;99.90
17284;DHT22;8760;52.248;20.952;2023-12-28T07:48:57;2.40;99.90
17284;DHT22;8760;52.248;20.952;2023-12-28T07:51:25;2.40;99.90
17284;DHT22;8760;52.248;20.952;2023-12-28T07:53:52;2.50;99.90
17284;DHT22;8760;52.248;20.952;2023-12-28T07:56:19;2.50;99.90
17284;DHT22;8760;52.248;20.952;2023-12-28T07:58:46;2.60;99.90
17284;DHT22;8760;52.248;20.952;2023-12-28T08:01:12;2.80;99.90
17284;DHT22;8760;52.248;20.952;2023-12-28T08:03:39;2.80;99.90
17284;DHT22;8760;52.248;20.952;2023-12-28T08:06:06;2.90;99.90
17284;DHT22;8760;52.248;20.952;2023-12-28T08:08:34;3.00;99.90
17284;DHT22;8760;52.248;20.952;2023-12-28T08:11:03;3.10;99.90
17284;DHT22;8760;52.248;20.952;2023-12-28T08:13:30;3.10;99.90
17284;DHT22;8760;52.248;20.952;2023-12-28T08:15:56;3.20;99.90
17284;DHT22;8760;52.248;20.952;2023-12-28T08:18:23;3.30;99.90
17284;DHT22;8760;52.248;20.952;2023-12-28T08:20:50;3.40;99.90
17284;DHT22;8760;52.248;20.952;2023-12-28T08:23:17;3.40;99.90
17284;DHT22;8760;52.248;20.952;2023-12-28T08:25:46;3.40;99.90
17284;DHT22;8760;52.248;20.952;2023-12-28T08:28:13;3.50;99.90
17284;DHT22;8760;52.248;20.952;2023-12-28T08:30:40;3.60;99.90
17284;DHT22;8760;52.248;20.952;2023-12-28T08:33:07;3.70;99.90
17284;DHT22;8760;52.248;20.952;2023-12-28T08:35:34;3.70;99.90
17284;DHT22;8760;52.248;20.952;2023-12-28T08:38:01;3.80;99.90
17284;DHT22;8760;52.248;20.952;2023-12-28T08:40:27;3.90;99.90
17284;DHT22;8760;52.248;20.952;2023-12-28T08:42:56;4.00;99.90
17284;DHT22;8760;52.248;20.952;2023-12-28T08:45:22;4.10;99.90
17284;DHT22;8760;52.248;20.952;2023-12-28T08:47:49;4.20;99.90
17284;DHT22;8760;52.248;20.952;2023-12-28T08:50:16;4.40;99.90
17284;DHT22;8760;52.248;20.952;2023-12-28T08:52:43;4.50;99.90
17284;DHT22;8760;52.248;20.952;2023-12-28T08:55:10;4.60;99.90
17284;DHT22;8760;52.248;20.952;2023-12-28T08:57:37;4.70;99.90
17284;DHT22;8760;52.248;20.952;2023-12-28T09:00:06;4.80;99.90
17284;DHT22;8760;52.248;20.952;2023-12-28T09:02:34;4.90;99.90
17284;DHT22;8760;52.248;20.952;2023-12-28T09:05:00;5.10;99.90
17284;DHT22;8760;52.248;20.952;2023-12-28T09:07:27;5.20;99.90
17284;DHT22;8760;52.248;20.952;2023-12-28T09:09:54;5.30;99.90
17284;DHT22;8760;52.248;20.952;2023-12-28T09:12:21;5.40;99.90
17284;DHT22;8760;52.248;20.952;2023-12-28T09:14:48;5.60;99.90
17284;DHT22;8760;52.248;20.952;2023-12-28T09:17:21;5.80;99.90
17284;DHT22;8760;52.248;20.952;2023-12-28T09:19:48;5.90;99.90
17284;DHT22;8760;52.248;20.952;2023-12-28T09:22:15;6.00;99.90
17284;DHT22;8760;52.248;20.952;2023-12-28T09:24:42;6.20;99.90
17284;DHT22;8760;52.248;20.952;2023-12-28T09:27:08;6.30;99.90
17284;DHT22;8760;52.248;20.952;2023-12-28T09:29:35;6.50;99.90
17284;DHT22;8760;52.248;20.952;2023-12-28T09:32:02;6.60;99.80
17284;DHT22;8760;52.248;20.952;2023-12-28T09:34:30;6.70;99.00
17284;DHT22;8760;52.248;20.952;2023-12-28T09:36:57;6.80;98.70
17284;DHT22;8760;52.248;20.952;2023-12-28T09:39:24;6.80;98.80
17284;DHT22;8760;52.248;20.952;2023-12-28T09:41:55;6.90;98.00
17284;DHT22;8760;52.248;20.952;2023-12-28T09:44:25;7.00;97.50
17284;DHT22;8760;52.248;20.952;2023-12-28T09:46:52;7.00;98.10
17284;DHT22;8760;52.248;20.952;2023-12-28T09:49:19;7.00;99.70
17284;DHT22;8760;52.248;20.952;2023-12-28T09:51:49;7.00;99.90
17284;DHT22;8760;52.248;20.952;2023-12-28T09:54:16;7.00;99.90
17284;DHT22;8760;52.248;20.952;2023-12-28T09:56:44;7.00;99.90
17284;DHT22;8760;52.248;20.952;2023-12-28T09:59:11;7.00;99.90
17284;DHT22;8760;52.248;20.952;2023-12-28T10:01:39;7.00;99.90
17284;DHT22;8760;52.248;20.952;2023-12-28T10:04:06;7.00;99.90
17284;DHT22;8760;52.248;20.952;2023-12-28T10:06:34;7.00;99.90
17284;DHT22;8760;52.248;20.952;2023-12-28T10:09:03;7.00;99.90
17284;DHT22;8760;52.248;20.952;2023-12-28T10:11:29;7.00;99.90
17284;DHT22;8760;52.248;20.952;2023-12-28T10:13:58;7.00;99.90
17284;DHT22;8760;52.248;20.952;2023-12-28T10:16:25;7.00;99.90
17284;DHT22;8760;52.248;20.952;2023-12-28T10:18:52;7.00;99.90
17284;DHT22;8760;52.248;20.952;2023-12-28T10:21:19;7.00;99.90
17284;DHT22;8760;52.248;20.952;2023-12-28T10:23:46;7.00;99.90
17284;DHT22;8760;52.248;20.952;2023-12-28T10:26:17;7.00;99.90
17284;DHT22;8760;52.248;20.952;2023-12-28T10:28:44;7.10;99.90
17284;DHT22;8760;52.248;20.952;2023-12-28T10:31:11;7.10;99.90
17284;DHT22;8760;52.248;20.952;2023-12-28T10:33:38;7.10;99.90
17284;DHT22;8760;52.248;20.952;2023-12-28T10:36:06;7.10;99.90
17284;DHT22;8760;52.248;20.952;2023-12-28T10:38:35;7.10;99.90
17284;DHT22;8760;52.248;20.952;2023-12-28T10:41:04;7.10;99.90
17284;DHT22;8760;52.248;20.952;2023-12-28T10:43:38;7.20;99.90
17284;DHT22;8760;52.248;20.952;2023-12-28T10:46:08;7.10;99.90
17284;DHT22;8760;52.248;20.952;2023-12-28T10:48:38;7.20;99.90
17284;DHT22;8760;52.248;20.952;2023-12-28T10:51:10;7.20;99.90
17284;DHT22;8760;52.248;20.952;2023-12-28T10:53:48;7.30;99.90
17284;DHT22;8760;52.248;20.952;2023-12-28T10:56:21;7.20;99.90
17284;DHT22;8760;52.248;20.952;2023-12-28T10:58:56;7.20;99.90
17284;DHT22;8760;52.248;20.952;2023-12-28T11:01:30;7.20;99.90
17284;DHT22;8760;52.248;20.952;2023-12-28T11:04:03;7.10;99.90
17284;DHT22;8760;52.248;20.952;2023-12-28T11:06:35;7.10;99.90
17284;DHT22;8760;52.248;20.952;2023-12-28T11:09:03;7.00;99.90
17284;DHT22;8760;52.248;20.952;2023-12-28T11:11:32;7.00;1.00
17284;DHT22;8760;52.248;20.952;2023-12-28T11:14:01;6.90;1.00
17284;DHT22;8760;52.248;20.952;2023-12-28T11:16:29;6.90;1.00
17284;DHT22;8760;52.248;20.952;2023-12-28T11:18:56;6.70;99.90
17284;DHT22;8760;52.248;20.952;2023-12-28T11:21:24;6.70;1.00
17284;DHT22;8760;52.248;20.952;2023-12-28T11:23:55;6.60;99.90
17284;DHT22;8760;52.248;20.952;2023-12-28T11:26:23;6.60;1.00
17284;DHT22;8760;52.248;20.952;2023-12-28T11:28:50;6.50;99.90
17284;DHT22;8760;52.248;20.952;2023-12-28T11:31:19;6.50;1.00
17284;DHT22;8760;52.248;20.952;2023-12-28T11:33:46;6.50;1.00
17284;DHT22;8760;52.248;20.952;2023-12-28T11:36:21;6.60;99.90
17284;DHT22;8760;52.248;20.952;2023-12-28T11:38:53;6.60;1.00
17284;DHT22;8760;52.248;20.952;2023-12-28T11:41:25;6.60;1.00
17284;DHT22;8760;52.248;20.952;2023-12-28T11:43:52;6.60;99.90
17284;DHT22;8760;52.248;20.952;2023-12-28T11:46:22;6.50;99.90
17284;DHT22;8760;52.248;20.952;2023-12-28T11:48:49;6.50;99.90
17284;DHT22;8760;52.248;20.952;2023-12-28T11:51:16;6.50;99.90
17284;DHT22;8760;52.248;20.952;2023-12-28T11:53:45;6.50;99.90
17284;DHT22;8760;52.248;20.952;2023-12-28T11:56:15;6.50;99.90
17284;DHT22;8760;52.248;20.952;2023-12-28T11:58:42;6.60;99.90
17284;DHT22;8760;52.248;20.952;2023-12-28T12:01:11;6.60;99.90
17284;DHT22;8760;52.248;20.952;2023-12-28T12:03:39;6.60;99.90
17284;DHT22;8760;52.248;20.952;2023-12-28T12:06:06;6.70;99.90
17284;DHT22;8760;52.248;20.952;2023-12-28T12:08:33;6.70;99.90
17284;DHT22;8760;52.248;20.952;2023-12-28T12:11:01;6.70;99.90
17284;DHT22;8760;52.248;20.952;2023-12-28T12:13:29;6.80;99.90
17284;DHT22;8760;52.248;20.952;2023-12-28T12:15:56;6.90;99.90
17284;DHT22;8760;52.248;20.952;2023-12-28T12:18:23;6.90;99.90
17284;DHT22;8760;52.248;20.952;2023-12-28T12:20:51;6.90;99.90
17284;DHT22;8760;52.248;20.952;2023-12-28T12:23:18;6.90;99.90
17284;DHT22;8760;52.248;20.952;2023-12-28T12:25:45;7.00;99.90
17284;DHT22;8760;52.248;20.952;2023-12-28T12:28:12;7.00;99.90
17284;DHT22;8760;52.248;20.952;2023-12-28T12:30:38;7.00;99.90
17284;DHT22;8760;52.248;20.952;2023-12-28T12:33:05;7.00;99.90
17284;DHT22;8760;52.248;20.952;2023-12-28T12:35:32;7.00;99.90
17284;DHT22;8760;52.248;20.952;2023-12-28T12:38:01;7.10;99.90
17284;DHT22;8760;52.248;20.952;2023-12-28T12:40:28;7.00;99.90
17284;DHT22;8760;52.248;20.952;2023-12-28T12:42:55;7.00;99.90
17284;DHT22;8760;52.248;20.952;2023-12-28T12:45:22;7.10;99.90
17284;DHT22;8760;52.248;20.952;2023-12-28T12:47:51;7.20;99.90
17284;DHT22;8760;52.248;20.952;2023-12-28T12:50:18;7.20;99.90
17284;DHT22;8760;52.248;20.952;2023-12-28T12:52:47;7.30;99.90
17284;DHT22;8760;52.248;20.952;2023-12-28T12:55:15;7.20;99.90
17284;DHT22;8760;52.248;20.952;2023-12-28T12:57:42;7.30;99.90
17284;DHT22;8760;52.248;20.952;2023-12-28T13:00:10;7.30;99.90
17284;DHT22;8760;52.248;20.952;2023-12-28T13:02:37;7.30;99.90
17284;DHT22;8760;52.248;20.952;2023-12-28T13:05:05;7.30;99.90
17284;DHT22;8760;52.248;20.952;2023-12-28T13:07:32;7.40;99.90
17284;DHT22;8760;52.248;20.952;2023-12-28T13:09:59;7.40;99.90
17284;DHT22;8760;52.248;20.952;2023-12-28T13:12:27;7.40;99.90
17284;DHT22;8760;52.248;20.952;2023-12-28T13:14:54;7.40;99.90
17284;DHT22;8760;52.248;20.952;2023-12-28T13:17:21;7.50;99.90
17284;DHT22;8760;52.248;20.952;2023-12-28T13:19:48;7.50;99.90
17284;DHT22;8760;52.248;20.952;2023-12-28T13:22:15;7.50;99.90
17284;DHT22;8760;52.248;20.952;2023-12-28T13:24:41;7.40;99.90
17284;DHT22;8760;52.248;20.952;2023-12-28T13:27:08;7.50;99.90
17284;DHT22;8760;52.248;20.952;2023-12-28T13:29:37;7.50;99.90
17284;DHT22;8760;52.248;20.952;2023-12-28T13:32:05;7.50;99.90
17284;DHT22;8760;52.248;20.952;2023-12-28T13:34:32;7.50;99.90
17284;DHT22;8760;52.248;20.952;2023-12-28T13:36:58;7.50;99.90
17284;DHT22;8760;52.248;20.952;2023-12-28T13:39:27;7.60;99.90
17284;DHT22;8760;52.248;20.952;2023-12-28T13:41:54;7.60;99.90
17284;DHT22;8760;52.248;20.952;2023-12-28T13:44:21;7.70;99.90
17284;DHT22;8760;52.248;20.952;2023-12-28T13:46:49;7.70;99.90
17284;DHT22;8760;52.248;20.952;2023-12-28T13:49:16;7.70;99.90
17284;DHT22;8760;52.248;20.952;2023-12-28T13:51:43;7.80;99.90
17284;DHT22;8760;52.248;20.952;2023-12-28T13:54:11;7.80;99.90
17284;DHT22;8760;52.248;20.952;2023-12-28T13:56:38;7.80;99.90
17284;DHT22;8760;52.248;20.952;2023-12-28T13:59:07;7.80;99.90
17284;DHT22;8760;52.248;20.952;2023-12-28T14:01:34;7.70;99.90
17284;DHT22;8760;52.248;20.952;2023-12-28T14:04:03;7.80;99.90
17284;DHT22;8760;52.248;20.952;2023-12-28T14:06:30;7.80;99.90
17284;DHT22;8760;52.248;20.952;2023-12-28T14:08:56;7.80;99.90
17284;DHT22;8760;52.248;20.952;2023-12-28T14:11:23;7.80;99.90
17284;DHT22;8760;52.248;20.952;2023-12-28T14:13:50;7.80;99.90
17284;DHT22;8760;52.248;20.952;2023-12-28T14:16:17;7.90;99.90
17284;DHT22;8760;52.248;20.952;2023-12-28T14:18:44;7.90;99.90
17284;DHT22;8760;52.248;20.952;2023-12-28T14:21:14;7.90;99.90
17284;DHT22;8760;52.248;20.952;2023-12-28T14:23:41;7.90;99.90
17284;DHT22;8760;52.248;20.952;2023-12-28T14:26:12;8.00;99.90
17284;DHT22;8760;52.248;20.952;2023-12-28T14:28:39;8.00;99.90
17284;DHT22;8760;52.248;20.952;2023-12-28T14:31:08;7.90;99.90
17284;DHT22;8760;52.248;20.952;2023-12-28T14:33:35;8.00;99.90
17284;DHT22;8760;52.248;20.952;2023-12-28T14:36:04;8.00;99.90
17284;DHT22;8760;52.248;20.952;2023-12-28T14:38:33;8.00;99.90
17284;DHT22;8760;52.248;20.952;2023-12-28T14:41:00;8.00;99.90
17284;DHT22;8760;52.248;20.952;2023-12-28T14:43:27;8.10;99.90
17284;DHT22;8760;52.248;20.952;2023-12-28T14:45:54;8.10;99.90
17284;DHT22;8760;52.248;20.952;2023-12-28T14:48:21;8.10;99.90
17284;DHT22;8760;52.248;20.952;2023-12-28T14:50:47;8.10;99.90
17284;DHT22;8760;52.248;20.952;2023-12-28T14:53:14;8.20;99.90
17284;DHT22;8760;52.248;20.952;2023-12-28T14:55:43;8.20;99.90
17284;DHT22;8760;52.248;20.952;2023-12-28T14:58:10;8.20;99.90
17284;DHT22;8760;52.248;20.952;2023-12-28T15:00:36;8.10;99.90
17284;DHT22;8760;52.248;20.952;2023-12-28T15:03:04;8.10;99.90
17284;DHT22;8760;52.248;20.952;2023-12-28T15:05:31;8.10;99.90
17284;DHT22;8760;52.248;20.952;2023-12-28T15:07:58;8.10;99.90
17284;DHT22;8760;52.248;20.952;2023-12-28T15:10:26;8.00;99.90
17284;DHT22;8760;52.248;20.952;2023-12-28T15:12:55;8.00;99.90
17284;DHT22;8760;52.248;20.952;2023-12-28T15:15:23;7.90;99.90
17284;DHT22;8760;52.248;20.952;2023-12-28T15:17:52;7.90;99.90
17284;DHT22;8760;52.248;20.952;2023-12-28T15:20:20;7.90;99.90
17284;DHT22;8760;52.248;20.952;2023-12-28T15:22:47;7.80;99.90
17284;DHT22;8760;52.248;20.952;2023-12-28T15:25:15;7.70;99.90
17284;DHT22;8760;52.248;20.952;2023-12-28T15:27:42;7.70;99.90
17284;DHT22;8760;52.248;20.952;2023-12-28T15:30:11;7.60;99.90
17284;DHT22;8760;52.248;20.952;2023-12-28T15:32:39;7.60;99.90
17284;DHT22;8760;52.248;20.952;2023-12-28T15:35:09;7.50;99.90
17284;DHT22;8760;52.248;20.952;2023-12-28T15:37:37;7.50;99.90
17284;DHT22;8760;52.248;20.952;2023-12-28T15:40:05;7.50;99.90
17284;DHT22;8760;52.248;20.952;2023-12-28T15:42:32;7.50;99.90
17284;DHT22;8760;52.248;20.952;2023-12-28T15:45:00;7.50;99.90
17284;DHT22;8760;52.248;20.952;2023-12-28T15:47:29;7.50;99.90
17284;DHT22;8760;52.248;20.952;2023-12-28T15:49:55;7.40;99.90